createdAt,value
2024-04-23T00:00:13.802Z,13.78
2024-04-23T00:03:32.490Z,13.80
2024-04-23T00:06:50.091Z,14.25
2024-04-23T00:10:08.243Z,15.78
2024-04-23T00:13:25.754Z,15.43
2024-04-23T00:16:43.306Z,15.45
2024-04-23T00:20:00.934Z,17.33
2024-04-23T00:23:19.080Z,16.23
2024-04-23T00:26:36.536Z,17.53
2024-04-23T00:29:53.976Z,15.10
2024-04-23T00:33:12.771Z,16.03
2024-04-23T00:36:30.476Z,15.13
2024-04-23T00:39:47.915Z,16.78
2024-04-23T00:43:05.465Z,16.28
2024-04-23T00:46:23.439Z,15.80
2024-04-23T00:49:41.334Z,16.83
2024-04-23T00:52:59.416Z,16.75
2024-04-23T00:56:19.308Z,16.73
2024-04-23T00:59:36.953Z,15.65
2024-04-23T01:02:54.452Z,15.68
2024-04-23T01:06:12.534Z,14.98
2024-04-23T01:09:30.517Z,15.70
2024-04-23T01:12:47.903Z,13.40
2024-04-23T01:16:05.840Z,13.93
2024-04-23T01:19:29.408Z,14.33
2024-04-23T01:22:53.472Z,13.68
2024-04-23T01:26:14.771Z,12.80
2024-04-23T01:29:33.054Z,13.05
2024-04-23T01:32:52.207Z,12.30
2024-04-23T01:36:10.380Z,12.78
2024-04-23T01:39:28.077Z,11.95
2024-04-23T01:42:46.386Z,12.93
2024-04-23T01:46:04.552Z,12.78
2024-04-23T01:49:22.167Z,13.18
2024-04-23T01:52:40.111Z,11.95
2024-04-23T01:55:57.875Z,12.30
2024-04-23T01:59:15.701Z,12.13
2024-04-23T02:02:33.746Z,12.73
2024-04-23T02:05:51.503Z,12.18
2024-04-23T02:09:09.341Z,12.30
2024-04-23T02:12:29.493Z,12.53
2024-04-23T02:15:46.969Z,13.23
2024-04-23T02:19:04.136Z,12.53
2024-04-23T02:22:21.999Z,12.13
2024-04-23T02:25:39.962Z,12.38
2024-04-23T02:28:57.283Z,12.75
2024-04-23T02:32:15.306Z,12.78
2024-04-23T02:35:32.935Z,12.20
2024-04-23T02:38:50.462Z,12.98
2024-04-23T02:42:08.768Z,12.38
2024-04-23T02:45:29.189Z,12.98
2024-04-23T02:48:45.175Z,13.98
2024-04-23T02:52:05.563Z,12.50
2024-04-23T02:55:23.129Z,12.63
2024-04-23T02:58:40.623Z,12.28
2024-04-23T03:02:03.472Z,12.80
2024-04-23T03:05:21.081Z,11.73
2024-04-23T03:08:38.602Z,12.28
2024-04-23T03:12:02.831Z,13.05
2024-04-23T03:15:20.487Z,12.68
2024-04-23T03:18:38.016Z,11.70
2024-04-23T03:22:03.490Z,11.50
2024-04-23T03:25:20.834Z,11.78
2024-04-23T03:28:38.375Z,10.58
2024-04-23T03:31:58.048Z,11.63
2024-04-23T03:35:16.246Z,9.48
2024-04-23T03:38:33.721Z,10.28
2024-04-23T03:42:00.510Z,10.53
2024-04-23T03:45:18.099Z,11.03
2024-04-23T03:48:35.661Z,10.38
2024-04-23T03:51:53.230Z,11.30
2024-04-23T03:55:10.948Z,10.30
2024-04-23T03:58:28.512Z,10.58
2024-04-23T04:01:46.183Z,10.13
2024-04-23T04:05:22.554Z,10.48
2024-04-23T04:08:40.677Z,9.60
2024-04-23T04:11:58.334Z,11.23
2024-04-23T04:15:16.527Z,11.23
2024-04-23T04:18:34.287Z,10.75
2024-04-23T04:21:51.884Z,11.18
2024-04-23T04:25:09.296Z,12.18
2024-04-23T04:28:27.014Z,10.95
2024-04-23T04:31:44.605Z,11.58
2024-04-23T04:35:02.230Z,12.40
2024-04-23T04:38:19.747Z,12.05
2024-04-23T04:41:37.194Z,12.53
2024-04-23T04:44:54.601Z,11.18
2024-04-23T04:48:12.843Z,11.85
2024-04-23T04:51:30.376Z,12.43
2024-04-23T04:54:47.731Z,11.88
2024-04-23T04:58:05.585Z,12.43
2024-04-23T05:01:22.990Z,11.90
2024-04-23T05:04:40.784Z,11.73
2024-04-23T05:07:58.387Z,12.43
2024-04-23T05:11:16.262Z,13.13
2024-04-23T05:14:33.804Z,12.48
2024-04-23T05:17:51.390Z,13.63
2024-04-23T05:21:09.095Z,15.75
2024-04-23T05:24:26.388Z,34.70
2024-04-23T05:27:43.837Z,16.95
2024-04-23T05:31:11.208Z,12.98
2024-04-23T05:34:28.774Z,13.43
2024-04-23T05:37:46.375Z,13.95
2024-04-23T05:41:04.212Z,14.28
2024-04-23T05:44:23.470Z,15.93
2024-04-23T05:47:54.122Z,16.00
2024-04-23T05:52:15.864Z,16.20
2024-04-23T05:55:49.083Z,18.88
2024-04-23T05:59:05.821Z,18.13
2024-04-23T06:02:23.771Z,15.50
2024-04-23T06:05:41.851Z,16.78
2024-04-23T06:08:59.655Z,15.95
2024-04-23T06:12:18.037Z,18.13
2024-04-23T06:15:36.072Z,19.38
2024-04-23T06:18:53.954Z,13.95
2024-04-23T06:22:11.870Z,12.75
2024-04-23T06:25:30.025Z,13.98
2024-04-23T06:28:47.701Z,11.90
2024-04-23T06:32:05.400Z,13.15
2024-04-23T06:35:23.262Z,12.88
2024-04-23T06:38:40.852Z,27.13
2024-04-23T06:41:58.684Z,16.73
2024-04-23T16:47:52.775Z,6.90
2024-04-23T16:51:10.568Z,10.55
2024-04-23T16:54:28.570Z,7.18
2024-04-23T16:57:46.164Z,8.15
2024-04-23T17:01:03.437Z,8.13
2024-04-23T17:04:20.885Z,7.63
2024-04-23T17:07:38.702Z,9.03
2024-04-23T17:10:56.151Z,8.13
2024-04-23T17:14:13.667Z,7.93
2024-04-23T17:17:31.233Z,7.93
2024-04-23T17:20:54.033Z,8.03
2024-04-23T17:24:12.448Z,8.75
2024-04-23T17:27:29.676Z,8.30
2024-04-23T17:30:50.105Z,8.48
2024-04-23T17:34:08.263Z,8.43
2024-04-23T17:37:25.437Z,8.75
2024-04-23T17:40:46.846Z,8.63
2024-04-23T17:44:04.678Z,8.80
2024-04-23T17:47:22.165Z,10.53
2024-04-23T17:50:39.353Z,27.58
2024-04-23T17:54:03.003Z,10.43
2024-04-23T17:57:20.593Z,9.93
2024-04-23T18:03:53.589Z,11.45
2024-04-23T18:07:10.800Z,9.85
2024-04-23T18:10:28.037Z,10.20
2024-04-23T18:13:45.490Z,10.93
2024-04-23T18:17:04.406Z,11.80
2024-04-23T18:20:21.976Z,12.30
2024-04-23T18:23:41.750Z,11.85
2024-04-23T18:26:58.950Z,13.08
2024-04-23T18:30:18.230Z,13.73
2024-04-23T18:33:36.290Z,13.48
2024-04-23T18:36:53.729Z,14.43
2024-04-23T18:40:11.803Z,13.30
2024-04-23T18:43:28.874Z,13.35
2024-04-23T18:50:01.231Z,14.95
2024-04-23T18:53:18.708Z,14.88
2024-04-23T18:56:36.536Z,16.88
2024-04-23T18:59:53.776Z,16.15
2024-04-23T19:03:10.931Z,15.35
2024-04-23T19:06:28.587Z,15.93
2024-04-23T19:09:47.931Z,17.58
2024-04-23T19:13:05.159Z,16.95
2024-04-23T19:16:22.739Z,16.10
2024-04-23T19:19:39.855Z,17.85
2024-04-23T19:22:56.760Z,16.78
2024-04-23T19:26:14.115Z,17.00
2024-04-23T19:29:31.317Z,17.03
2024-04-23T19:32:49.184Z,18.80
2024-04-23T19:36:08.474Z,17.48
2024-04-23T19:39:26.207Z,17.10
2024-04-23T19:42:43.788Z,18.88
2024-04-23T19:46:01.126Z,17.43
2024-04-23T19:49:18.304Z,20.18
2024-04-23T19:52:35.451Z,22.13
2024-04-23T19:55:54.463Z,17.33
2024-04-23T19:59:12.518Z,21.00
2024-04-23T20:02:29.882Z,23.68
2024-04-23T20:05:47.104Z,23.78
2024-04-23T20:09:04.318Z,26.18
2024-04-23T20:12:21.464Z,29.50
2024-04-23T20:15:38.712Z,25.85
2024-04-23T20:18:56.214Z,26.38
2024-04-23T20:22:13.617Z,25.68
2024-04-23T20:25:30.931Z,26.68
2024-04-23T20:28:48.149Z,27.63
2024-04-23T20:32:05.631Z,27.15
2024-04-23T20:35:22.848Z,27.28
2024-04-23T20:38:40.062Z,25.40
2024-04-23T20:41:57.235Z,25.33
2024-04-23T20:45:16.102Z,25.85
2024-04-23T20:48:33.472Z,26.30
2024-04-23T20:51:50.915Z,26.80
2024-04-23T20:55:08.160Z,24.75
2024-04-23T20:58:25.869Z,26.90
2024-04-23T21:01:43.148Z,26.15
2024-04-23T21:05:00.578Z,26.95
2024-04-23T21:08:18.611Z,26.93
2024-04-23T21:11:37.461Z,26.98
2024-04-23T21:14:54.919Z,25.10
2024-04-23T21:18:12.629Z,25.00
2024-04-23T21:21:31.244Z,26.75
2024-04-23T21:24:48.472Z,25.25
2024-04-23T21:28:05.605Z,26.05
2024-04-23T21:31:22.993Z,27.63
2024-04-23T21:34:40.668Z,27.23
2024-04-23T21:37:57.898Z,25.23
2024-04-23T21:41:17.322Z,26.98
2024-04-23T21:44:34.689Z,27.08
2024-04-23T21:47:52.211Z,27.33
2024-04-23T21:51:16.477Z,27.15
2024-04-23T21:54:33.661Z,27.40
2024-04-23T21:57:51.888Z,27.55
2024-04-23T22:01:10.823Z,29.10
2024-04-23T22:04:28.575Z,27.18
2024-04-23T22:07:50.636Z,27.03
2024-04-23T22:11:07.995Z,31.23
2024-04-23T22:14:25.904Z,29.23
2024-04-23T22:17:44.162Z,31.58
2024-04-23T22:21:01.525Z,32.40
2024-04-23T22:24:19.234Z,31.15
2024-04-23T22:27:36.328Z,32.13
2024-04-23T22:30:53.677Z,32.28
2024-04-23T22:34:12.046Z,32.15
2024-04-23T22:37:29.360Z,31.63
2024-04-23T22:40:46.508Z,33.10
2024-04-23T22:44:03.956Z,31.90
2024-04-23T22:47:23.092Z,30.28
2024-04-23T22:50:40.330Z,32.30
2024-04-23T22:53:57.528Z,30.73
2024-04-23T22:57:15.049Z,27.90
2024-04-23T23:00:32.411Z,27.90
2024-04-23T23:03:49.431Z,27.88
2024-04-23T23:10:23.970Z,24.20
2024-04-23T23:13:41.115Z,22.58
2024-04-23T23:16:58.235Z,25.83
2024-04-23T23:20:17.113Z,24.98
2024-04-23T23:23:34.227Z,23.85
2024-04-23T23:30:05.907Z,23.85
2024-04-23T23:33:23.063Z,23.90
2024-04-23T23:36:40.383Z,25.50
2024-04-23T23:39:57.537Z,24.35
2024-04-23T23:43:14.743Z,23.88
2024-04-23T23:46:31.495Z,25.90
2024-04-23T23:49:48.594Z,26.85
2024-04-23T23:53:05.902Z,27.00
2024-04-23T23:56:23.119Z,26.60
2024-04-23T23:59:40.417Z,26.20
